createdAt,value
2023-05-20T00:01:27.005Z,12.30
2023-05-20T00:05:30.806Z,12.10
2023-05-20T00:09:34.489Z,12.10
2023-05-20T00:13:39.688Z,12.10
2023-05-20T00:17:43.431Z,12.10
2023-05-20T00:21:47.136Z,12.00
2023-05-20T00:25:51.693Z,12.10
2023-05-20T00:29:56.746Z,12.10
2023-05-20T00:34:00.367Z,12.10
2023-05-20T00:38:03.840Z,12.00
2023-05-20T00:42:07.650Z,12.00
2023-05-20T00:46:12.666Z,12.10
2023-05-20T00:50:16.470Z,12.10
2023-05-20T00:54:20.997Z,12.00
2023-05-20T00:58:24.859Z,11.90
2023-05-20T01:02:30.461Z,11.90
2023-05-20T01:06:34.016Z,11.80
2023-05-20T01:10:42.978Z,11.80
2023-05-20T01:14:51.523Z,11.80
2023-05-20T01:18:59.222Z,11.80
2023-05-20T01:23:04.555Z,11.70
2023-05-20T01:27:10.471Z,11.70
2023-05-20T01:31:24.599Z,11.70
2023-05-20T01:35:28.974Z,11.80
2023-05-20T01:39:38.081Z,11.80
2023-05-20T01:43:42.256Z,11.70
2023-05-20T01:47:47.253Z,11.80
2023-05-20T01:51:50.815Z,11.80
2023-05-20T01:55:56.014Z,11.80
2023-05-20T01:59:59.456Z,11.70
2023-05-20T02:04:03.042Z,11.70
2023-05-20T02:08:07.005Z,11.80
2023-05-20T02:12:16.639Z,11.80
2023-05-20T02:16:20.290Z,11.80
2023-05-20T02:20:23.961Z,11.80
2023-05-20T02:24:27.481Z,11.80
2023-05-20T02:28:33.725Z,11.80
2023-05-20T02:32:38.396Z,11.80
2023-05-20T02:36:42.484Z,11.70
2023-05-20T02:40:46.627Z,11.80
2023-05-20T02:44:53.453Z,11.70
2023-05-20T02:48:56.922Z,11.70
2023-05-20T02:53:00.561Z,11.70
2023-05-20T02:57:04.254Z,11.70
2023-05-20T03:01:09.254Z,11.80
2023-05-20T03:05:12.868Z,11.90
2023-05-20T03:09:16.540Z,12.00
2023-05-20T03:13:19.971Z,12.10
2023-05-20T03:17:25.080Z,12.10
2023-05-20T03:21:29.433Z,12.10
2023-05-20T03:25:33.575Z,12.00
2023-05-20T03:29:37.901Z,12.10
2023-05-20T03:33:42.982Z,12.00
2023-05-20T03:37:46.507Z,11.90
2023-05-20T03:41:50.047Z,11.90
2023-05-20T03:45:54.924Z,11.80
2023-05-20T03:50:10.430Z,11.80
2023-05-20T03:59:49.230Z,11.80
2023-05-20T04:03:53.594Z,12.00
2023-05-20T04:08:00.266Z,11.90
2023-05-20T04:12:04.204Z,12.00
2023-05-20T04:16:08.409Z,12.10
2023-05-20T04:20:13.196Z,12.10
2023-05-20T04:24:18.049Z,12.20
2023-05-20T04:28:24.183Z,12.30
2023-05-20T04:32:28.083Z,12.40
2023-05-20T04:36:32.564Z,12.50
2023-05-20T04:40:37.386Z,12.50
2023-05-20T04:44:42.506Z,12.50
2023-05-20T04:48:48.261Z,12.60
2023-05-20T04:52:51.873Z,12.70
2023-05-20T04:56:56.980Z,12.70
2023-05-20T05:01:01.641Z,12.80
2023-05-20T05:05:07.717Z,13.00
2023-05-20T05:14:37.587Z,13.50
2023-05-20T05:19:11.920Z,13.60
2023-05-20T05:23:16.289Z,13.80
2023-05-20T05:27:20.033Z,14.10
2023-05-20T05:31:24.891Z,14.20
2023-05-20T05:35:28.471Z,14.20
2023-05-20T05:39:31.902Z,14.20
2023-05-20T05:43:35.799Z,14.20
2023-05-20T05:47:59.361Z,14.20
2023-05-20T05:52:02.858Z,14.30
2023-05-20T05:56:06.832Z,14.40
2023-05-20T06:00:11.790Z,14.60
2023-05-20T06:04:16.609Z,14.80
2023-05-20T06:08:20.062Z,15.10
2023-05-20T06:12:23.712Z,15.10
2023-05-20T06:16:27.471Z,15.20
2023-05-20T06:20:49.168Z,15.70
2023-05-20T06:24:53.184Z,15.90
2023-05-20T06:28:57.392Z,16.30
2023-05-20T06:33:00.953Z,16.60
2023-05-20T06:37:06.374Z,16.70
2023-05-20T06:41:09.760Z,16.60
2023-05-20T06:45:14.187Z,16.60
2023-05-20T06:49:18.129Z,16.80
2023-05-20T06:53:22.905Z,17.10
2023-05-20T06:57:26.511Z,17.40
2023-05-20T07:01:30.062Z,17.90
2023-05-20T07:05:33.999Z,18.00
2023-05-20T07:09:38.944Z,17.70
2023-05-20T07:13:42.533Z,17.50
2023-05-20T07:17:46.019Z,17.40
2023-05-20T07:21:50.125Z,17.70
2023-05-20T07:25:55.598Z,17.90
2023-05-20T07:29:59.066Z,18.40
2023-05-20T07:34:02.953Z,18.80
2023-05-20T07:38:06.530Z,19.40
2023-05-20T07:42:11.380Z,20.10
2023-05-20T07:46:18.032Z,20.60
2023-05-20T07:50:23.391Z,20.60
2023-05-20T07:54:27.791Z,20.70
2023-05-20T07:58:33.305Z,20.70
2023-05-20T08:02:37.930Z,20.90
2023-05-20T08:06:42.162Z,21.30
2023-05-20T08:10:45.724Z,21.70
2023-05-20T08:14:50.659Z,22.20
2023-05-20T08:18:54.396Z,22.10
2023-05-20T08:22:57.855Z,21.20
2023-05-20T08:27:01.421Z,21.60
2023-05-20T08:31:06.481Z,22.30
2023-05-20T08:35:10.794Z,22.30
2023-05-20T08:39:14.327Z,22.40
2023-05-20T08:43:17.977Z,22.10
2023-05-20T08:47:23.495Z,22.00
2023-05-20T08:51:29.076Z,22.60
2023-05-20T08:55:39.171Z,23.40
2023-05-20T08:59:44.469Z,23.10
2023-05-20T09:03:49.540Z,22.60
2023-05-20T09:07:53.132Z,22.70
2023-05-20T09:11:56.986Z,25.30
2023-05-20T09:16:02.341Z,25.10
2023-05-20T09:20:11.202Z,25.10
2023-05-20T09:24:14.755Z,24.70
2023-05-20T09:28:18.379Z,24.10
2023-05-20T09:32:24.436Z,23.80
2023-05-20T09:36:32.002Z,26.70
2023-05-20T09:40:39.059Z,28.90
2023-05-20T09:44:45.647Z,30.10
2023-05-20T09:48:50.102Z,29.00
2023-05-20T09:52:56.098Z,28.60
2023-05-20T09:57:01.895Z,27.00
2023-05-20T10:01:05.495Z,25.50
2023-05-20T10:05:13.856Z,24.90
2023-05-20T10:09:33.678Z,26.20
2023-05-20T10:13:50.307Z,27.30
2023-05-20T10:18:10.273Z,28.60
2023-05-20T10:22:14.212Z,29.10
2023-05-20T10:26:19.582Z,29.70
2023-05-20T10:30:23.882Z,30.60
2023-05-20T10:34:27.500Z,29.50
2023-05-20T10:38:31.082Z,28.60
2023-05-20T10:42:36.169Z,27.80
2023-05-20T10:46:59.866Z,27.40
2023-05-20T10:51:05.190Z,29.00
2023-05-20T10:55:20.255Z,28.90
2023-05-20T10:59:25.269Z,29.70
2023-05-20T11:03:30.888Z,29.80
2023-05-20T11:07:34.612Z,30.10
2023-05-20T11:11:39.010Z,31.70
2023-05-20T11:15:44.231Z,31.80
2023-05-20T11:19:48.402Z,30.40
2023-05-20T11:23:53.773Z,29.60
2023-05-20T11:27:57.972Z,29.10
2023-05-20T11:32:03.022Z,29.00
2023-05-20T11:36:13.485Z,27.40
2023-05-20T11:40:30.556Z,28.50
2023-05-20T11:44:36.956Z,30.50
2023-05-20T11:48:52.395Z,31.10
2023-05-20T11:53:03.780Z,34.10
2023-05-20T11:57:07.623Z,33.10
2023-05-20T12:01:21.455Z,32.40
2023-05-20T12:05:27.761Z,30.80
2023-05-20T12:09:31.713Z,28.80
2023-05-20T12:13:35.583Z,27.80
2023-05-20T12:17:48.672Z,27.60
2023-05-20T12:21:53.993Z,29.30
2023-05-20T12:25:57.548Z,29.20
2023-05-20T12:30:01.152Z,29.70
2023-05-20T12:34:04.794Z,29.70
2023-05-20T12:38:11.419Z,29.00
2023-05-20T12:42:14.992Z,29.00
2023-05-20T12:46:19.393Z,30.70
2023-05-20T12:50:23.117Z,31.50
2023-05-20T12:54:28.349Z,30.60
2023-05-20T12:58:32.104Z,30.40
2023-05-20T13:02:37.690Z,29.80
2023-05-20T13:06:47.092Z,29.10
2023-05-20T13:10:52.160Z,29.00
2023-05-20T13:14:55.682Z,28.40
2023-05-20T13:18:59.408Z,27.90
2023-05-20T13:23:03.237Z,28.40
2023-05-20T13:27:08.426Z,28.60
2023-05-20T13:31:12.039Z,27.80
2023-05-20T13:35:17.082Z,29.10
2023-05-20T13:39:20.530Z,30.40
2023-05-20T13:43:25.981Z,31.10
2023-05-20T13:47:29.545Z,30.00
2023-05-20T13:51:33.280Z,29.50
2023-05-20T13:55:37.932Z,28.30
2023-05-20T13:59:43.389Z,27.20
2023-05-20T14:03:47.289Z,26.60
2023-05-20T14:07:50.876Z,26.90
2023-05-20T14:11:54.444Z,27.60
2023-05-20T14:15:59.405Z,27.80
2023-05-20T14:20:03.122Z,26.80
2023-05-20T14:24:07.107Z,26.50
2023-05-20T14:28:10.933Z,25.90
2023-05-20T14:32:15.757Z,27.00
2023-05-20T14:36:19.559Z,27.90
2023-05-20T14:40:23.391Z,28.10
2023-05-20T14:44:27.038Z,27.00
2023-05-20T14:48:32.021Z,25.50
2023-05-20T14:52:35.835Z,24.60
2023-05-20T14:56:39.665Z,24.00
2023-05-20T15:00:45.087Z,23.30
2023-05-20T15:04:50.046Z,23.40
2023-05-20T15:08:54.007Z,23.60
2023-05-20T15:12:57.662Z,25.00
2023-05-20T15:17:01.381Z,26.50
2023-05-20T15:21:06.837Z,26.10
2023-05-20T15:25:10.740Z,25.70
2023-05-20T15:29:14.214Z,25.80
2023-05-20T15:33:17.888Z,26.70
2023-05-20T15:37:22.709Z,25.90
2023-05-20T15:41:26.335Z,25.90
2023-05-20T15:45:29.810Z,26.10
2023-05-20T15:49:33.271Z,26.00
2023-05-20T15:53:40.665Z,25.50
2023-05-20T15:57:44.684Z,24.40
2023-05-20T16:01:48.589Z,24.40
2023-05-20T16:05:52.118Z,24.60
2023-05-20T16:09:57.200Z,24.20
2023-05-20T16:14:00.638Z,23.60
2023-05-20T16:18:05.615Z,22.90
2023-05-20T16:22:09.495Z,20.90
2023-05-20T16:26:14.735Z,18.80
2023-05-20T16:30:18.549Z,17.90
2023-05-20T16:34:31.275Z,17.50
2023-05-20T16:38:34.790Z,17.30
2023-05-20T16:42:45.749Z,17.20
2023-05-20T16:46:49.222Z,17.00
2023-05-20T16:50:53.284Z,16.90
2023-05-20T16:55:02.520Z,16.70
2023-05-20T16:59:08.799Z,16.70
2023-05-20T17:03:12.558Z,16.80
2023-05-20T17:07:16.628Z,16.70
2023-05-20T17:11:20.194Z,16.70
2023-05-20T17:15:25.739Z,16.70
2023-05-20T17:19:29.634Z,16.70
2023-05-20T17:23:33.503Z,16.60
2023-05-20T17:27:37.457Z,16.40
2023-05-20T17:31:43.122Z,16.30
2023-05-20T17:35:47.443Z,16.20
2023-05-20T17:39:51.586Z,16.20
2023-05-20T17:43:55.513Z,16.10
2023-05-20T17:48:02.332Z,15.80
2023-05-20T17:52:07.111Z,15.80
2023-05-20T17:56:12.978Z,15.70
2023-05-20T18:00:21.956Z,15.60
2023-05-20T18:04:28.699Z,15.60
2023-05-20T18:08:33.663Z,15.60
2023-05-20T18:12:38.069Z,15.40
2023-05-20T18:16:42.321Z,15.40
2023-05-20T18:20:48.146Z,15.40
2023-05-20T18:24:52.446Z,15.40
2023-05-20T18:28:56.679Z,15.30
2023-05-20T18:33:01.285Z,15.20
2023-05-20T18:37:07.183Z,15.30
2023-05-20T18:41:11.847Z,15.20
2023-05-20T18:45:16.027Z,15.20
2023-05-20T18:49:20.210Z,15.10
2023-05-20T18:53:26.065Z,14.90
2023-05-20T18:57:30.573Z,15.00
2023-05-20T19:01:37.152Z,15.10
2023-05-20T19:05:41.424Z,15.20
2023-05-20T19:09:47.353Z,15.00
2023-05-20T19:13:51.650Z,15.00
2023-05-20T19:17:56.318Z,15.00
2023-05-20T19:22:00.752Z,14.90
2023-05-20T19:26:06.548Z,14.90
2023-05-20T19:30:11.727Z,14.80
2023-05-20T19:34:17.270Z,14.70
2023-05-20T19:38:23.071Z,14.70
2023-05-20T19:42:29.116Z,14.60
2023-05-20T19:46:33.833Z,14.60
2023-05-20T19:50:38.296Z,14.60
2023-05-20T19:54:43.479Z,14.50
2023-05-20T19:58:49.364Z,14.40
2023-05-20T20:02:53.702Z,14.30
2023-05-20T20:06:58.500Z,14.40
2023-05-20T20:11:02.769Z,14.30
2023-05-20T20:15:11.346Z,14.30
2023-05-20T20:19:19.366Z,14.30
2023-05-20T20:23:25.152Z,14.30
2023-05-20T20:27:30.431Z,14.20
2023-05-20T20:31:40.129Z,14.10
2023-05-20T20:35:47.389Z,14.00
2023-05-20T20:39:51.965Z,14.00
2023-05-20T20:43:56.525Z,14.00
2023-05-20T20:48:05.651Z,14.00
2023-05-20T20:52:11.192Z,13.90
2023-05-20T20:56:15.631Z,13.80
2023-05-20T21:00:23.554Z,13.80
2023-05-20T21:04:28.478Z,13.80
2023-05-20T21:08:32.073Z,13.80
2023-05-20T21:12:35.776Z,13.60
2023-05-20T21:16:39.418Z,13.70
2023-05-20T21:20:44.375Z,13.70
2023-05-20T21:24:49.193Z,13.50
2023-05-20T21:28:53.078Z,13.40
2023-05-20T21:32:56.652Z,13.30
2023-05-20T21:37:01.686Z,13.20
2023-05-20T21:41:05.234Z,13.00
2023-05-20T21:45:10.310Z,13.00
2023-05-20T21:49:13.866Z,12.90
2023-05-20T21:53:19.180Z,12.80
2023-05-20T21:57:22.822Z,12.70
2023-05-20T22:01:26.518Z,12.60
2023-05-20T22:05:30.125Z,12.60
2023-05-20T22:09:35.154Z,12.50
2023-05-20T22:13:41.447Z,12.50
2023-05-20T22:17:47.618Z,12.30
2023-05-20T22:21:51.388Z,12.30
2023-05-20T22:25:56.418Z,12.20
2023-05-20T22:30:00.172Z,12.20
2023-05-20T22:34:04.678Z,12.10
2023-05-20T22:38:08.365Z,12.10
2023-05-20T22:42:13.188Z,12.00
2023-05-20T22:46:16.857Z,11.90
2023-05-20T22:50:20.547Z,11.80
2023-05-20T22:54:24.000Z,11.80
2023-05-20T22:58:29.684Z,11.70
2023-05-20T23:02:33.151Z,11.70
2023-05-20T23:06:38.361Z,11.60
2023-05-20T23:10:41.791Z,11.60
2023-05-20T23:14:46.904Z,11.60
2023-05-20T23:18:50.460Z,11.50
2023-05-20T23:22:54.001Z,11.50
2023-05-20T23:26:59.460Z,11.40
2023-05-20T23:31:04.645Z,11.30
2023-05-20T23:35:11.611Z,11.30
2023-05-20T23:39:17.509Z,11.20
2023-05-20T23:43:21.823Z,11.20
2023-05-20T23:47:29.975Z,11.20
2023-05-20T23:51:35.616Z,11.10
2023-05-20T23:55:39.542Z,11.10
2023-05-20T23:59:43.170Z,11.00
